Time;durP1;ratioP1;P1;durP2;ratioP2;P2;SDS_P1;SDS_P2;PMS_P1;PMS_P2;Temp;Humidity;BMP_temperature;BMP_pressure;BME280_temperature;BME280_humidity;BME280_pressure;Samples;Min_cycle;Max_cycle;Signal;HPM_P1;HPM_P2
2023/02/18 00:01:37;;;;;;;9.30;6.40;;;;;;;;;;5104450;28;20208;-83
2023/02/18 00:04:04;;;;;;;7.40;5.17;;;;;;;;;;5092906;28;20197;-83
2023/02/18 00:06:34;;;;;;;5.93;5.03;;;;;;;;;;5093204;28;20200;-83
2023/02/18 00:09:02;;;;;;;5.13;4.63;;;;;;;;;;5110017;28;20286;-83
2023/02/18 00:11:31;;;;;;;4.10;3.70;;;;;;;;;;5103269;28;20663;-83
2023/02/18 00:14:00;;;;;;;5.30;4.20;;;;;;;;;;5096412;28;20199;-83
2023/02/18 00:16:28;;;;;;;5.87;4.97;;;;;;;;;;5113123;28;20195;-83
2023/02/18 00:18:56;;;;;;;6.10;4.33;;;;;;;;;;5109105;28;20208;-82
2023/02/18 00:21:23;;;;;;;4.30;3.90;;;;;;;;;;5104809;28;20195;-83
2023/02/18 00:23:51;;;;;;;5.93;3.90;;;;;;;;;;5099098;28;20207;-83
2023/02/18 00:26:19;;;;;;;5.27;3.63;;;;;;;;;;5101208;28;20200;-83
2023/02/18 00:28:47;;;;;;;5.13;3.90;;;;;;;;;;5111776;28;20709;-83
2023/02/18 00:31:16;;;;;;;6.53;4.23;;;;;;;;;;5113063;28;20206;-83
2023/02/18 00:33:43;;;;;;;8.13;4.57;;;;;;;;;;5099368;28;20200;-83
2023/02/18 00:36:12;;;;;;;5.13;4.47;;;;;;;;;;5094661;28;20211;-83
2023/02/18 00:38:39;;;;;;;5.87;5.03;;;;;;;;;;5092631;28;20197;-83
2023/02/18 00:41:07;;;;;;;5.83;4.53;;;;;;;;;;5068560;28;20240;-83
2023/02/18 00:43:34;;;;;;;5.87;4.47;;;;;;;;;;5105188;28;20241;-83
2023/02/18 00:46:01;;;;;;;6.83;4.57;;;;;;;;;;5070626;28;20286;-83
2023/02/18 00:48:28;;;;;;;5.20;4.43;;;;;;;;;;5064649;28;20229;-83
2023/02/18 00:50:55;;;;;;;4.53;3.80;;;;;;;;;;5065644;28;20273;-83
2023/02/18 00:53:23;;;;;;;5.20;3.70;;;;;;;;;;5070898;28;20205;-83
2023/02/18 00:55:50;;;;;;;5.43;4.43;;;;;;;;;;5071821;28;20286;-84
2023/02/18 00:58:19;;;;;;;5.33;3.60;;;;;;;;;;5054331;28;20209;-83
2023/02/18 01:00:46;;;;;;;8.20;5.03;;;;;;;;;;5071865;28;20634;-84
2023/02/18 01:03:13;;;;;;;5.73;4.67;;;;;;;;;;5072155;28;20722;-83
2023/02/18 01:05:40;;;;;;;9.43;5.50;;;;;;;;;;5071935;28;20213;-82
2023/02/18 01:08:09;;;;;;;6.60;5.03;;;;;;;;;;5070410;28;20297;-83
2023/02/18 01:10:40;;;;;;;6.10;4.27;;;;;;;;;;5056995;28;20202;-83
2023/02/18 01:13:07;;;;;;;4.77;3.43;;;;;;;;;;5062301;28;20236;-83
2023/02/18 01:15:35;;;;;;;4.37;3.83;;;;;;;;;;5068338;28;20209;-84
2023/02/18 01:18:02;;;;;;;5.30;3.63;;;;;;;;;;5071689;28;20258;-83
2023/02/18 01:20:29;;;;;;;5.03;3.77;;;;;;;;;;5071307;28;20274;-83
2023/02/18 01:22:56;;;;;;;29.17;18.50;;;;;;;;;;5071004;28;20208;-84
2023/02/18 01:25:23;;;;;;;14.47;10.10;;;;;;;;;;5071636;28;20193;-83
2023/02/18 01:27:49;;;;;;;5.63;4.37;;;;;;;;;;5071247;28;20236;-84
2023/02/18 01:30:18;;;;;;;7.97;3.37;;;;;;;;;;5071129;28;20212;-83
2023/02/18 01:32:46;;;;;;;5.30;4.27;;;;;;;;;;5071829;28;20201;-83
2023/02/18 01:35:14;;;;;;;6.07;4.83;;;;;;;;;;5071063;28;20213;-84
2023/02/18 01:37:41;;;;;;;4.80;4.30;;;;;;;;;;5070979;28;20209;-83
2023/02/18 01:40:10;;;;;;;7.47;6.77;;;;;;;;;;5070615;28;20220;-83
2023/02/18 01:42:37;;;;;;;8.33;5.30;;;;;;;;;;5071394;28;20208;-83
2023/02/18 01:45:40;;;;;;;9.80;7.97;;;;;;;;;;5057608;28;20205;-83
2023/02/18 01:48:11;;;;;;;6.27;4.97;;;;;;;;;;5071247;28;20224;-83
2023/02/18 01:50:41;;;;;;;5.73;4.43;;;;;;;;;;5071329;28;20212;-83
2023/02/18 01:53:08;;;;;;;4.90;4.30;;;;;;;;;;5069934;28;20204;-83
2023/02/18 01:55:36;;;;;;;4.97;4.23;;;;;;;;;;5070406;28;20286;-83
2023/02/18 01:58:03;;;;;;;6.37;3.87;;;;;;;;;;5063462;28;20194;-83
2023/02/18 02:00:31;;;;;;;5.07;4.03;;;;;;;;;;5051206;28;20220;-83
2023/02/18 02:02:58;;;;;;;6.47;4.30;;;;;;;;;;5071012;28;20273;-83
2023/02/18 02:05:31;;;;;;;5.17;4.07;;;;;;;;;;5070160;28;20278;-83
2023/02/18 02:07:59;;;;;;;4.50;3.90;;;;;;;;;;5064007;28;20221;-83
2023/02/18 02:10:33;;;;;;;8.27;5.03;;;;;;;;;;5064800;28;20220;-84
2023/02/18 02:13:05;;;;;;;4.30;3.90;;;;;;;;;;5070815;28;20197;-83
2023/02/18 02:15:36;;;;;;;4.63;4.03;;;;;;;;;;5057340;28;20258;-83
2023/02/18 02:18:18;;;;;;;6.07;4.13;;;;;;;;;;5070914;28;20255;-83
2023/02/18 02:21:13;;;;;;;6.70;4.97;;;;;;;;;;5070682;28;20215;-83
2023/02/18 02:24:15;;;;;;;11.93;6.60;;;;;;;;;;5057718;28;20197;-83
2023/02/18 02:27:00;;;;;;;6.70;5.37;;;;;;;;;;5026407;28;20684;-83
2023/02/18 02:30:26;;;;;;;7.23;5.03;;;;;;;;;;5070709;28;20301;-83
2023/02/18 02:33:46;;;;;;;61.33;30.40;;;;;;;;;;5063880;28;20213;-84
2023/02/18 02:36:16;;;;;;;30.90;17.93;;;;;;;;;;5051003;28;20210;-84
2023/02/18 02:38:51;;;;;;;23.70;11.93;;;;;;;;;;5071345;28;20212;-83
2023/02/18 02:41:28;;;;;;;15.73;10.10;;;;;;;;;;5055109;28;20680;-83
2023/02/18 02:44:02;;;;;;;33.30;19.97;;;;;;;;;;5060581;28;20234;-83
2023/02/18 02:46:33;;;;;;;15.43;10.23;;;;;;;;;;5085689;28;20219;-83
2023/02/18 02:49:08;;;;;;;12.13;6.10;;;;;;;;;;5098585;28;20669;-83
2023/02/18 02:51:42;;;;;;;12.30;5.70;;;;;;;;;;5097783;28;20206;-83
2023/02/18 02:54:12;;;;;;;5.97;4.37;;;;;;;;;;5097139;28;20219;-83
2023/02/18 02:56:39;;;;;;;6.67;4.27;;;;;;;;;;5110650;28;20204;-83
2023/02/18 02:59:08;;;;;;;5.17;4.67;;;;;;;;;;5079328;28;20196;-83
2023/02/18 03:01:40;;;;;;;6.93;4.33;;;;;;;;;;5110863;28;20719;-83
2023/02/18 03:04:29;;;;;;;5.47;3.87;;;;;;;;;;5110841;28;20202;-83
2023/02/18 03:07:07;;;;;;;4.63;3.73;;;;;;;;;;5097571;28;20253;-82
2023/02/18 03:09:43;;;;;;;5.23;3.80;;;;;;;;;;5102488;28;20226;-83
2023/02/18 03:12:15;;;;;;;4.80;3.70;;;;;;;;;;5112572;28;20207;-83
2023/02/18 03:14:45;;;;;;;6.10;4.40;;;;;;;;;;5104162;28;20203;-83
2023/02/18 03:17:16;;;;;;;5.87;3.80;;;;;;;;;;5100267;28;20199;-83
2023/02/18 03:19:47;;;;;;;5.27;4.37;;;;;;;;;;5114174;28;20591;-83
2023/02/18 03:22:18;;;;;;;4.53;3.87;;;;;;;;;;5100715;28;20200;-82
2023/02/18 03:24:49;;;;;;;3.83;3.47;;;;;;;;;;5101988;28;20250;-83
2023/02/18 03:27:18;;;;;;;7.00;4.40;;;;;;;;;;5113659;28;20749;-83
2023/02/18 03:29:47;;;;;;;5.77;4.30;;;;;;;;;;5114136;28;20268;-82
2023/02/18 03:32:16;;;;;;;4.30;3.60;;;;;;;;;;5106894;28;20667;-83
2023/02/18 03:34:47;;;;;;;6.00;4.00;;;;;;;;;;5108731;28;20618;-83
2023/02/18 03:37:16;;;;;;;8.43;4.60;;;;;;;;;;5105134;28;20211;-83
2023/02/18 03:39:46;;;;;;;7.13;4.37;;;;;;;;;;5107556;28;20204;-83
2023/02/18 03:42:13;;;;;;;6.10;4.40;;;;;;;;;;5093938;28;20652;-83
2023/02/18 03:44:40;;;;;;;6.23;4.53;;;;;;;;;;5075313;28;20197;-83
2023/02/18 03:47:07;;;;;;;4.63;4.10;;;;;;;;;;5104071;28;20303;-83
2023/02/18 03:49:34;;;;;;;6.83;5.20;;;;;;;;;;5113785;28;20219;-83
2023/02/18 03:52:01;;;;;;;4.93;4.10;;;;;;;;;;5113539;28;20596;-83
2023/02/18 03:54:30;;;;;;;4.57;4.07;;;;;;;;;;5113849;28;20211;-83
2023/02/18 03:56:57;;;;;;;5.17;3.67;;;;;;;;;;5083990;28;20635;-83
2023/02/18 03:59:25;;;;;;;4.37;3.67;;;;;;;;;;5079657;28;20196;-82
2023/02/18 04:01:52;;;;;;;3.40;3.10;;;;;;;;;;5102040;28;20211;-83
2023/02/18 04:04:19;;;;;;;3.73;3.23;;;;;;;;;;5082001;28;20739;-83
2023/02/18 04:06:46;;;;;;;4.63;3.90;;;;;;;;;;5101716;28;20216;-83
2023/02/18 04:09:13;;;;;;;5.47;4.10;;;;;;;;;;5088414;28;20228;-83
2023/02/18 04:11:42;;;;;;;4.40;3.60;;;;;;;;;;5094327;28;20337;-83
2023/02/18 04:14:09;;;;;;;4.53;3.83;;;;;;;;;;5106762;28;20192;-83
2023/02/18 04:16:36;;;;;;;6.17;4.20;;;;;;;;;;5105528;28;20208;-83
2023/02/18 04:19:03;;;;;;;6.33;4.07;;;;;;;;;;5094683;28;20227;-83
2023/02/18 04:21:30;;;;;;;5.97;3.70;;;;;;;;;;5113589;28;20203;-83
2023/02/18 04:23:57;;;;;;;3.83;3.53;;;;;;;;;;5094887;28;20195;-82
2023/02/18 04:26:24;;;;;;;4.63;4.00;;;;;;;;;;5100974;28;20626;-84
2023/02/18 04:28:52;;;;;;;4.97;3.17;;;;;;;;;;5093069;28;20235;-83
2023/02/18 04:31:19;;;;;;;5.27;3.77;;;;;;;;;;5105389;28;20215;-84
2023/02/18 04:33:46;;;;;;;5.33;3.53;;;;;;;;;;5112835;28;20208;-84
2023/02/18 04:36:13;;;;;;;4.50;3.43;;;;;;;;;;5099353;28;20201;-84
2023/02/18 04:38:42;;;;;;;3.80;3.13;;;;;;;;;;5074348;28;20216;-83
2023/02/18 04:41:08;;;;;;;11.30;9.03;;;;;;;;;;5105985;28;20200;-84
2023/02/18 04:43:35;;;;;;;11.27;8.97;;;;;;;;;;5112892;28;20195;-84
2023/02/18 04:46:03;;;;;;;6.97;5.30;;;;;;;;;;5112593;28;20227;-84
2023/02/18 04:48:30;;;;;;;3.50;3.20;;;;;;;;;;5087603;28;20702;-84
2023/02/18 04:50:57;;;;;;;4.40;4.00;;;;;;;;;;5107012;28;20619;-84
2023/02/18 04:53:24;;;;;;;4.53;3.40;;;;;;;;;;5112899;28;20203;-85
2023/02/18 04:55:52;;;;;;;2.70;2.50;;;;;;;;;;5094065;28;20215;-85
2023/02/18 04:58:19;;;;;;;4.17;3.50;;;;;;;;;;5112670;28;20559;-84
2023/02/18 05:00:46;;;;;;;53.87;35.17;;;;;;;;;;5111295;28;20206;-84
2023/02/18 05:03:14;;;;;;;95.13;58.27;;;;;;;;;;5112383;28;20203;-84
2023/02/18 05:05:41;;;;;;;15.90;11.20;;;;;;;;;;5097942;28;20683;-84
2023/02/18 05:08:08;;;;;;;10.67;7.93;;;;;;;;;;5103835;28;20200;-84
2023/02/18 05:10:35;;;;;;;33.57;23.67;;;;;;;;;;5106837;28;20210;-84
2023/02/18 05:13:02;;;;;;;6.23;4.23;;;;;;;;;;5098479;28;20685;-84
2023/02/18 05:15:28;;;;;;;4.00;3.43;;;;;;;;;;5105257;28;20572;-84
2023/02/18 05:17:55;;;;;;;8.67;5.17;;;;;;;;;;5101046;28;20743;-85
2023/02/18 05:20:23;;;;;;;6.80;5.13;;;;;;;;;;5112120;28;20211;-84
2023/02/18 05:22:50;;;;;;;11.33;5.67;;;;;;;;;;5102169;28;20207;-85
2023/02/18 05:25:17;;;;;;;29.67;20.07;;;;;;;;;;5104989;28;20196;-84
2023/02/18 05:27:44;;;;;;;21.43;13.50;;;;;;;;;;5102393;28;20211;-84
2023/02/18 05:30:11;;;;;;;5.20;4.43;;;;;;;;;;5097992;28;20235;-85
2023/02/18 05:32:38;;;;;;;6.17;3.60;;;;;;;;;;5111150;28;20256;-84
2023/02/18 05:35:06;;;;;;;8.83;7.57;;;;;;;;;;5112051;28;20256;-84
2023/02/18 05:37:34;;;;;;;20.53;15.43;;;;;;;;;;5092922;28;20268;-85
2023/02/18 05:40:01;;;;;;;33.30;26.53;;;;;;;;;;5099740;28;20572;-85
2023/02/18 05:42:28;;;;;;;58.67;38.53;;;;;;;;;;5111827;28;20206;-84
2023/02/18 05:44:56;;;;;;;11.97;8.50;;;;;;;;;;5112343;28;20289;-85
2023/02/18 05:47:23;;;;;;;13.73;10.47;;;;;;;;;;5111946;28;20252;-84
2023/02/18 05:49:50;;;;;;;14.77;10.07;;;;;;;;;;5111741;28;20602;-85
2023/02/18 05:52:17;;;;;;;14.80;10.23;;;;;;;;;;5111508;28;20635;-85
2023/02/18 05:54:46;;;;;;;13.50;9.20;;;;;;;;;;5084622;28;20223;-84
2023/02/18 05:57:13;;;;;;;11.77;8.97;;;;;;;;;;5104618;28;20215;-83
2023/02/18 05:59:42;;;;;;;12.70;9.17;;;;;;;;;;5101157;28;20203;-84
2023/02/18 06:02:09;;;;;;;6.57;5.77;;;;;;;;;;5097324;28;20203;-84
2023/02/18 06:04:36;;;;;;;34.13;21.97;;;;;;;;;;5111735;28;20191;-83
2023/02/18 06:07:02;;;;;;;64.00;41.57;;;;;;;;;;5110996;28;20203;-84
2023/02/18 06:09:29;;;;;;;34.67;22.07;;;;;;;;;;5111331;28;20219;-84
2023/02/18 06:11:58;;;;;;;46.27;34.43;;;;;;;;;;5059763;28;20247;-86
2023/02/18 06:14:25;;;;;;;216.27;104.13;;;;;;;;;;5104511;28;20204;-84
2023/02/18 06:16:52;;;;;;;15.83;10.53;;;;;;;;;;5105242;28;20218;-84
2023/02/18 06:19:18;;;;;;;14.97;10.13;;;;;;;;;;5104118;28;20208;-84
2023/02/18 06:21:46;;;;;;;25.53;16.83;;;;;;;;;;5104895;28;20199;-84
2023/02/18 06:24:12;;;;;;;91.93;45.97;;;;;;;;;;5111356;28;20290;-84
2023/02/18 06:26:42;;;;;;;32.70;18.53;;;;;;;;;;5096917;28;20208;-84
2023/02/18 06:29:11;;;;;;;12.57;9.00;;;;;;;;;;5085698;28;20748;-84
2023/02/18 06:31:38;;;;;;;8.20;5.97;;;;;;;;;;5074665;28;20625;-84
2023/02/18 06:34:05;;;;;;;83.73;43.00;;;;;;;;;;5111010;28;20207;-83
2023/02/18 06:36:34;;;;;;;93.63;46.67;;;;;;;;;;5091372;28;20195;-84
2023/02/18 06:39:03;;;;;;;56.10;28.80;;;;;;;;;;5091252;28;20265;-84
2023/02/18 06:41:30;;;;;;;29.53;18.53;;;;;;;;;;5091040;28;20201;-84
2023/02/18 06:43:57;;;;;;;19.43;13.57;;;;;;;;;;5104163;28;20640;-84
2023/02/18 06:46:25;;;;;;;16.20;11.20;;;;;;;;;;5098797;28;20228;-84
2023/02/18 06:48:52;;;;;;;11.47;9.67;;;;;;;;;;5105297;28;20210;-83
2023/02/18 06:51:19;;;;;;;10.47;7.80;;;;;;;;;;5101280;28;20192;-84
2023/02/18 06:53:46;;;;;;;11.53;8.43;;;;;;;;;;5097166;28;20256;-84
2023/02/18 06:56:13;;;;;;;13.07;7.23;;;;;;;;;;5110718;28;20204;-84
2023/02/18 06:58:41;;;;;;;9.53;6.50;;;;;;;;;;5105813;28;20674;-84
2023/02/18 07:01:08;;;;;;;8.77;6.23;;;;;;;;;;5096938;28;20199;-85
2023/02/18 07:03:38;;;;;;;7.60;5.97;;;;;;;;;;5113085;28;20204;-88
2023/02/18 07:06:05;;;;;;;7.73;4.87;;;;;;;;;;5113510;28;20747;-85
2023/02/18 07:08:35;;;;;;;6.97;6.37;;;;;;;;;;5115038;28;20210;-85
2023/02/18 07:11:02;;;;;;;8.23;6.27;;;;;;;;;;5101211;28;20226;-84
2023/02/18 07:13:29;;;;;;;10.70;7.00;;;;;;;;;;5115107;28;20207;-86
2023/02/18 07:15:55;;;;;;;7.70;4.77;;;;;;;;;;5115238;28;20204;-84
2023/02/18 07:18:22;;;;;;;5.33;4.33;;;;;;;;;;5076493;28;20624;-82
2023/02/18 07:20:51;;;;;;;7.33;4.43;;;;;;;;;;5107076;28;20215;-83
2023/02/18 07:23:19;;;;;;;9.80;4.43;;;;;;;;;;5113225;28;20200;-82
2023/02/18 07:25:46;;;;;;;5.07;3.70;;;;;;;;;;5106762;28;20204;-82
2023/02/18 07:28:12;;;;;;;5.60;5.10;;;;;;;;;;5110993;28;20205;-83
2023/02/18 07:30:39;;;;;;;6.27;5.13;;;;;;;;;;5110083;28;20227;-84
2023/02/18 07:33:06;;;;;;;7.20;5.00;;;;;;;;;;5099674;28;20204;-82
2023/02/18 07:35:34;;;;;;;7.83;5.80;;;;;;;;;;5113939;28;20692;-83
2023/02/18 07:38:03;;;;;;;13.23;8.57;;;;;;;;;;5082742;28;20208;-83
2023/02/18 07:40:30;;;;;;;8.17;6.50;;;;;;;;;;5114198;28;20223;-85
2023/02/18 07:42:56;;;;;;;7.87;5.93;;;;;;;;;;5097847;28;20200;-83
2023/02/18 07:45:24;;;;;;;6.70;5.37;;;;;;;;;;5103587;28;20746;-83
2023/02/18 07:47:50;;;;;;;4.77;4.13;;;;;;;;;;5100447;28;20204;-83
2023/02/18 07:50:17;;;;;;;5.23;3.87;;;;;;;;;;5103579;28;20232;-82
2023/02/18 07:52:44;;;;;;;4.93;4.40;;;;;;;;;;5093919;28;20204;-82
2023/02/18 07:55:12;;;;;;;4.73;4.23;;;;;;;;;;5092236;28;20652;-83
2023/02/18 07:57:56;;;;;;;5.47;4.47;;;;;;;;;;5097426;28;20211;-83
2023/02/18 08:00:23;;;;;;;4.43;3.73;;;;;;;;;;5113719;28;20290;-82
2023/02/18 08:02:50;;;;;;;4.33;3.27;;;;;;;;;;5106681;28;20589;-82
2023/02/18 08:05:16;;;;;;;6.57;3.97;;;;;;;;;;5093428;28;20701;-82
2023/02/18 08:07:43;;;;;;;4.30;3.67;;;;;;;;;;5093171;28;20216;-82
2023/02/18 08:10:13;;;;;;;4.67;3.37;;;;;;;;;;5107119;28;20817;-82
2023/02/18 08:12:39;;;;;;;7.13;3.83;;;;;;;;;;5106980;28;20208;-82
2023/02/18 08:15:06;;;;;;;4.60;4.07;;;;;;;;;;5092821;28;20565;-82
2023/02/18 08:17:33;;;;;;;5.90;4.97;;;;;;;;;;5113519;28;20203;-83
2023/02/18 08:20:00;;;;;;;4.17;3.77;;;;;;;;;;5099734;28;20204;-82
2023/02/18 08:22:26;;;;;;;4.43;3.17;;;;;;;;;;5112935;28;20569;-82
2023/02/18 08:24:55;;;;;;;6.90;3.33;;;;;;;;;;5112754;28;20199;-83
2023/02/18 08:27:23;;;;;;;8.00;4.60;;;;;;;;;;5092728;28;20403;-82
2023/02/18 08:29:50;;;;;;;6.97;3.97;;;;;;;;;;5092753;28;20243;-82
2023/02/18 08:32:17;;;;;;;5.30;3.13;;;;;;;;;;5100526;28;20260;-83
2023/02/18 08:34:43;;;;;;;3.00;2.80;;;;;;;;;;5112831;28;20203;-82
2023/02/18 08:37:10;;;;;;;4.03;3.07;;;;;;;;;;5105181;28;20204;-82
2023/02/18 08:39:38;;;;;;;7.10;3.63;;;;;;;;;;5093387;28;20711;-82
2023/02/18 08:42:05;;;;;;;3.57;3.27;;;;;;;;;;5112876;28;20204;-83
2023/02/18 08:44:33;;;;;;;5.47;3.67;;;;;;;;;;5112849;28;20204;-82
2023/02/18 08:47:00;;;;;;;5.77;4.40;;;;;;;;;;5112936;28;20220;-81
2023/02/18 08:49:26;;;;;;;6.93;4.60;;;;;;;;;;5112589;28;20203;-82
2023/02/18 08:51:53;;;;;;;7.93;4.37;;;;;;;;;;5103043;28;20205;-82
2023/02/18 08:54:20;;;;;;;5.57;4.10;;;;;;;;;;5092567;28;20211;-82
2023/02/18 08:56:47;;;;;;;8.20;5.50;;;;;;;;;;5101971;28;20211;-82
2023/02/18 08:59:13;;;;;;;10.33;5.50;;;;;;;;;;5112200;28;20207;-82
2023/02/18 09:01:42;;;;;;;5.60;4.90;;;;;;;;;;5112640;28;20199;-82
2023/02/18 09:04:08;;;;;;;4.27;3.50;;;;;;;;;;5112334;28;20632;-81
2023/02/18 09:06:38;;;;;;;3.90;3.53;;;;;;;;;;5105089;28;20203;-83
2023/02/18 09:09:05;;;;;;;4.17;3.07;;;;;;;;;;5104318;28;20290;-83
2023/02/18 09:11:33;;;;;;;7.53;4.70;;;;;;;;;;5107405;28;20236;-82
2023/02/18 09:14:00;;;;;;;3.73;3.30;;;;;;;;;;5080915;28;20209;-83
2023/02/18 09:16:28;;;;;;;3.27;2.97;;;;;;;;;;5110861;28;20241;-84
2023/02/18 09:18:57;;;;;;;7.77;2.87;;;;;;;;;;5087862;28;20197;-83
2023/02/18 09:21:24;;;;;;;5.20;3.97;;;;;;;;;;5085293;28;20200;-82
2023/02/18 09:23:52;;;;;;;5.70;4.00;;;;;;;;;;5106416;28;20227;-83
2023/02/18 09:26:21;;;;;;;4.10;3.30;;;;;;;;;;5111010;28;20200;-83
2023/02/18 09:28:49;;;;;;;7.37;5.20;;;;;;;;;;5105218;28;20265;-83
2023/02/18 09:31:17;;;;;;;3.80;3.37;;;;;;;;;;5091672;28;20223;-83
2023/02/18 09:33:48;;;;;;;4.43;3.10;;;;;;;;;;5110646;28;20203;-83
2023/02/18 09:36:19;;;;;;;4.83;3.00;;;;;;;;;;5110611;28;20215;-83
2023/02/18 09:38:46;;;;;;;3.60;2.93;;;;;;;;;;5096623;28;20254;-82
2023/02/18 09:41:26;;;;;;;51.57;16.83;;;;;;;;;;5111068;28;20191;-81
2023/02/18 09:43:55;;;;;;;45.83;15.50;;;;;;;;;;5106024;28;20207;-81
2023/02/18 09:46:25;;;;;;;49.17;16.17;;;;;;;;;;5099167;28;20223;-81
2023/02/18 09:48:52;;;;;;;9.83;5.33;;;;;;;;;;5105474;28;20204;-82
2023/02/18 09:51:21;;;;;;;5.77;3.90;;;;;;;;;;5103683;28;20219;-81
2023/02/18 09:53:48;;;;;;;3.97;2.47;;;;;;;;;;5102585;28;20203;-81
2023/02/18 09:56:18;;;;;;;4.87;2.90;;;;;;;;;;5079389;28;20208;-82
2023/02/18 09:58:46;;;;;;;3.53;2.60;;;;;;;;;;5110507;28;20207;-82
2023/02/18 10:01:17;;;;;;;8.30;4.03;;;;;;;;;;5074679;28;20273;-82
2023/02/18 10:03:46;;;;;;;3.87;2.90;;;;;;;;;;5102838;28;20253;-83
2023/02/18 10:06:18;;;;;;;3.30;3.00;;;;;;;;;;5087990;28;20207;-82
2023/02/18 10:08:48;;;;;;;4.53;4.00;;;;;;;;;;5101057;28;20212;-82
2023/02/18 10:11:17;;;;;;;4.07;2.90;;;;;;;;;;5096342;28;20292;-81
2023/02/18 10:13:47;;;;;;;4.10;2.70;;;;;;;;;;5110904;28;20253;-82
2023/02/18 10:16:17;;;;;;;4.13;2.73;;;;;;;;;;5109324;28;20663;-82
2023/02/18 10:18:47;;;;;;;2.60;2.40;;;;;;;;;;5108073;28;20996;-82
2023/02/18 10:21:17;;;;;;;5.30;2.70;;;;;;;;;;5102753;28;20204;-82
2023/02/18 10:23:58;;;;;;;5.67;2.43;;;;;;;;;;5094996;28;20288;-82
2023/02/18 10:26:25;;;;;;;2.60;2.10;;;;;;;;;;5110879;28;20286;-82
2023/02/18 10:28:52;;;;;;;4.57;3.07;;;;;;;;;;5104857;28;20684;-82
2023/02/18 10:31:25;;;;;;;4.57;2.77;;;;;;;;;;5095130;28;20689;-81
2023/02/18 10:33:57;;;;;;;5.10;2.20;;;;;;;;;;5086788;28;20264;-82
2023/02/18 10:36:26;;;;;;;6.63;4.27;;;;;;;;;;5099024;28;20211;-81
2023/02/18 10:39:21;;;;;;;3.07;2.73;;;;;;;;;;5099310;28;20197;-82
2023/02/18 10:41:55;;;;;;;3.27;2.60;;;;;;;;;;5099606;28;20213;-82
2023/02/18 10:44:30;;;;;;;5.60;4.73;;;;;;;;;;5095102;28;20194;-82
2023/02/18 10:47:00;;;;;;;3.13;2.83;;;;;;;;;;5105895;28;20607;-82
2023/02/18 10:49:47;;;;;;;3.30;3.00;;;;;;;;;;5107682;28;20240;-82
2023/02/18 10:52:19;;;;;;;4.00;2.40;;;;;;;;;;5101827;28;20226;-82
2023/02/18 10:54:58;;;;;;;3.57;2.57;;;;;;;;;;5097120;28;20203;-81
2023/02/18 10:57:25;;;;;;;4.43;3.10;;;;;;;;;;5105537;28;20214;-82
2023/02/18 10:59:58;;;;;;;2.60;2.40;;;;;;;;;;5102424;28;20214;-81
2023/02/18 11:02:29;;;;;;;4.10;3.30;;;;;;;;;;5092808;28;20235;-81
2023/02/18 11:04:57;;;;;;;3.47;2.87;;;;;;;;;;5100133;28;20215;-82
2023/02/18 11:07:27;;;;;;;4.30;2.67;;;;;;;;;;5107963;28;20206;-82
2023/02/18 11:09:56;;;;;;;4.43;2.87;;;;;;;;;;5110992;28;20202;-82
2023/02/18 11:12:27;;;;;;;5.07;3.03;;;;;;;;;;5106869;28;20280;-81
2023/02/18 11:15:07;;;;;;;2.30;2.10;;;;;;;;;;5102257;28;20210;-82
2023/02/18 11:17:36;;;;;;;3.57;2.60;;;;;;;;;;5097562;28;20627;-82
2023/02/18 11:20:20;;;;;;;2.83;2.53;;;;;;;;;;5110236;28;20745;-82
2023/02/18 11:22:47;;;;;;;3.20;2.83;;;;;;;;;;5090837;28;20214;-82
2023/02/18 11:25:21;;;;;;;3.80;2.43;;;;;;;;;;5075476;28;20207;-82
2023/02/18 11:27:50;;;;;;;2.73;2.50;;;;;;;;;;5100180;28;20204;-82
2023/02/18 11:30:21;;;;;;;2.00;1.80;;;;;;;;;;5111666;28;20192;-82
2023/02/18 11:32:49;;;;;;;2.10;1.90;;;;;;;;;;5096119;28;20195;-82
2023/02/18 11:35:20;;;;;;;3.17;2.07;;;;;;;;;;5114311;28;20591;-82
2023/02/18 11:37:48;;;;;;;1.90;1.80;;;;;;;;;;5114420;28;20214;-82
2023/02/18 11:40:25;;;;;;;2.40;1.77;;;;;;;;;;5107525;28;20269;-82
2023/02/18 11:42:52;;;;;;;3.70;1.80;;;;;;;;;;5108310;28;20629;-82
2023/02/18 11:45:30;;;;;;;1.67;1.57;;;;;;;;;;5113576;28;20211;-81
2023/02/18 11:48:01;;;;;;;1.60;1.50;;;;;;;;;;5100533;28;20211;-81
2023/02/18 11:50:31;;;;;;;2.03;1.87;;;;;;;;;;5113604;28;20206;-82
2023/02/18 11:52:58;;;;;;;2.03;1.73;;;;;;;;;;5114179;28;20203;-81
2023/02/18 11:55:29;;;;;;;1.70;1.60;;;;;;;;;;5103420;28;20211;-81
2023/02/18 11:57:58;;;;;;;1.67;1.57;;;;;;;;;;5111672;28;20270;-82
2023/02/18 12:00:36;;;;;;;1.40;1.30;;;;;;;;;;5101351;28;20200;-82
2023/02/18 12:03:07;;;;;;;1.97;1.77;;;;;;;;;;5093181;28;20221;-81
2023/02/18 12:05:37;;;;;;;2.13;2.00;;;;;;;;;;5108090;28;20200;-81
2023/02/18 12:08:07;;;;;;;2.17;1.97;;;;;;;;;;5114080;28;20204;-81
2023/02/18 12:10:40;;;;;;;2.30;2.07;;;;;;;;;;5112966;28;20199;-81
2023/02/18 12:13:22;;;;;;;2.83;2.07;;;;;;;;;;5114111;28;20209;-82
2023/02/18 12:15:54;;;;;;;4.77;2.40;;;;;;;;;;5099740;28;20723;-81
2023/02/18 12:18:53;;;;;;;3.47;1.87;;;;;;;;;;5100724;28;20223;-81
2023/02/18 12:21:43;;;;;;;2.97;2.43;;;;;;;;;;5079257;28;20210;-81
2023/02/18 12:24:21;;;;;;;4.53;2.10;;;;;;;;;;5104639;28;20209;-85
2023/02/18 12:26:58;;;;;;;4.83;2.70;;;;;;;;;;5108744;28;20203;-81
2023/02/18 12:29:39;;;;;;;4.20;2.87;;;;;;;;;;5108591;28;20677;-81
2023/02/18 12:32:16;;;;;;;5.30;4.13;;;;;;;;;;5112088;28;20230;-81
2023/02/18 12:34:51;;;;;;;2.43;2.20;;;;;;;;;;5111328;28;20207;-82
2023/02/18 12:37:39;;;;;;;4.07;2.40;;;;;;;;;;5109438;28;20202;-81
2023/02/18 12:40:35;;;;;;;2.70;2.13;;;;;;;;;;5105686;28;20207;-82
2023/02/18 12:43:08;;;;;;;2.20;2.00;;;;;;;;;;5112298;28;20210;-81
2023/02/18 12:46:02;;;;;;;2.10;1.60;;;;;;;;;;5112268;28;20201;-81
2023/02/18 12:48:48;;;;;;;3.17;2.10;;;;;;;;;;5097018;28;20567;-81
2023/02/18 12:51:28;;;;;;;6.10;3.23;;;;;;;;;;5112527;28;20230;-82
2023/02/18 12:54:23;;;;;;;4.43;2.43;;;;;;;;;;5107244;28;20671;-81
2023/02/18 12:57:03;;;;;;;4.63;3.20;;;;;;;;;;5086950;28;20260;-81
2023/02/18 12:59:48;;;;;;;4.10;2.97;;;;;;;;;;5111720;28;20252;-81
2023/02/18 13:02:31;;;;;;;4.43;2.40;;;;;;;;;;5111652;28;20214;-82
2023/02/18 13:05:05;;;;;;;2.57;2.23;;;;;;;;;;5108423;28;20199;-82
2023/02/18 13:07:58;;;;;;;2.47;1.90;;;;;;;;;;5092258;28;20787;-81
2023/02/18 13:10:56;;;;;;;3.27;2.33;;;;;;;;;;5092356;28;20231;-82
2023/02/18 13:13:25;;;;;;;4.93;2.80;;;;;;;;;;5111726;28;20195;-82
2023/02/18 13:15:57;;;;;;;15.10;9.50;;;;;;;;;;5112127;28;20203;-82
2023/02/18 13:18:28;;;;;;;36.23;21.17;;;;;;;;;;5112544;28;20199;-81
2023/02/18 13:20:56;;;;;;;12.47;9.13;;;;;;;;;;5111989;28;20203;-81
2023/02/18 13:23:26;;;;;;;6.30;5.67;;;;;;;;;;5111254;28;20636;-82
2023/02/18 13:25:57;;;;;;;6.77;6.27;;;;;;;;;;5111609;28;20203;-82
2023/02/18 13:28:28;;;;;;;4.70;4.30;;;;;;;;;;5101858;28;20201;-82
2023/02/18 13:31:04;;;;;;;21.50;14.43;;;;;;;;;;5106260;28;20203;-83
2023/02/18 13:33:37;;;;;;;21.17;15.17;;;;;;;;;;5111612;28;20210;-82
2023/02/18 13:36:08;;;;;;;6.40;5.57;;;;;;;;;;5102513;28;20207;-82
2023/02/18 13:38:51;;;;;;;11.33;9.60;;;;;;;;;;5109294;28;20206;-82
2023/02/18 13:41:19;;;;;;;5.13;3.80;;;;;;;;;;5110320;28;20211;-82
2023/02/18 13:43:46;;;;;;;3.53;3.20;;;;;;;;;;5111458;28;20260;-82
2023/02/18 13:46:17;;;;;;;3.77;2.77;;;;;;;;;;5091766;28;20253;-82
2023/02/18 13:48:47;;;;;;;3.93;2.90;;;;;;;;;;5111216;28;20685;-82
2023/02/18 13:51:16;;;;;;;6.13;2.97;;;;;;;;;;5111754;28;20246;-82
2023/02/18 13:53:45;;;;;;;3.87;3.47;;;;;;;;;;5110461;28;20669;-83
2023/02/18 13:56:23;;;;;;;5.27;4.17;;;;;;;;;;5111760;28;20214;-82
2023/02/18 13:58:51;;;;;;;5.73;3.30;;;;;;;;;;5110626;28;20196;-82
2023/02/18 14:01:24;;;;;;;4.20;3.20;;;;;;;;;;5108232;28;20198;-81
2023/02/18 14:04:32;;;;;;;2.40;2.20;;;;;;;;;;5091421;28;20204;-83
2023/02/18 14:07:25;;;;;;;3.03;2.03;;;;;;;;;;5083765;28;20192;-81
2023/02/18 14:09:53;;;;;;;3.70;2.43;;;;;;;;;;5108130;28;20738;-80
2023/02/18 14:12:36;;;;;;;7.83;2.43;;;;;;;;;;5106619;28;20773;-83
2023/02/18 14:15:43;;;;;;;1.73;1.63;;;;;;;;;;5105838;28;20199;-84
2023/02/18 14:18:27;;;;;;;4.37;1.90;;;;;;;;;;5097780;28;20207;-85
2023/02/18 14:21:05;;;;;;;6.63;3.47;;;;;;;;;;5102107;28;20210;-86
2023/02/18 14:23:58;;;;;;;4.10;2.90;;;;;;;;;;5085484;28;20233;-92
2023/02/18 14:26:30;;;;;;;8.17;6.53;;;;;;;;;;5098863;28;20204;-95
2023/02/18 14:29:01;;;;;;;6.07;4.03;;;;;;;;;;5104986;28;20287;-84
2023/02/18 14:31:34;;;;;;;6.53;4.37;;;;;;;;;;5086942;28;20226;-86
2023/02/18 14:34:34;;;;;;;4.07;3.53;;;;;;;;;;5102592;28;20213;-86
2023/02/18 14:37:15;;;;;;;3.40;2.80;;;;;;;;;;5111868;28;20208;-87
2023/02/18 14:39:53;;;;;;;3.70;2.53;;;;;;;;;;5097435;28;20211;-87
2023/02/18 14:42:28;;;;;;;12.53;8.33;;;;;;;;;;5083518;28;20212;-86
2023/02/18 14:45:06;;;;;;;7.63;6.33;;;;;;;;;;5091198;28;20201;-85
2023/02/18 14:47:49;;;;;;;6.07;4.03;;;;;;;;;;5097659;28;20253;-86
2023/02/18 14:50:19;;;;;;;3.20;2.60;;;;;;;;;;5087982;28;20278;-87
2023/02/18 14:52:49;;;;;;;5.50;4.40;;;;;;;;;;5102528;28;20241;-86
2023/02/18 14:55:20;;;;;;;10.47;6.73;;;;;;;;;;5091257;28;20265;-84
2023/02/18 14:57:51;;;;;;;15.43;10.87;;;;;;;;;;5090784;28;20206;-83
2023/02/18 15:00:19;;;;;;;18.30;11.43;;;;;;;;;;5094944;28;20673;-82
2023/02/18 15:02:49;;;;;;;22.93;12.50;;;;;;;;;;5091122;28;20210;-85